YXMG weather

Murgon Hospital Helipad
Murgon, Queensland, Australia

Public forecast

Using degrees Celsius for public forecast. Weather courtesy of forecast.io.

METAR (pilot weather report)

Closest report is Kingaroy Airport, 21.4 nm (39.6 km) SSW. Retrieved 2019/02/18 06:00 UTC (35 minutes ago):

YKRY 180600Z AUTO 12008KT 9999 // NCD 32/11 Q1009

TAF (pilot weather forecast)

Closest forecast is Brisbane International Airport, 92.9 nm (172.1 km) SE. Retrieved 2019/02/18 06:00 UTC (35 minutes ago):

TAF YBBN 180523Z 1806/1912 09012KT 9999 FEW040 FM180900 10008KT 9999 FEW030 FM181400 19005KT 9999 FEW025 FM182300 13010KT 9999 FEW040 FM190100 05012KT CAVOK FM190900 09008KT 9999 FEW025